Main page
METAR-TAF:

METAR-TAF

Airports :

Oil platform Norsk Hydro

Oseberg, Norway

latitude: 60-29-29N, longitude: 2-49-32E, elevation: 158 m

Current weather observation

The report was made 48 minutes ago, at 02:50 UTC
Wind 26 kt from the Northwest
Temperature 9°C
Humidity 66%
Pressure 1006 hPa
Visibility 10 km or more
Few clouds at a height of 4000 ft

METAR: ENOA 230250Z 32026KT 9999 FEW040 09/03 Q1006 W///S5

Time: 05:38 (03:38 UTC)

Forecast

Forecast valid from 23 at 03 UTC to 24 at 03 UTC
Wind 25 kt from the Northwest
Visibility 10 km or more
Few clouds at a height of 1500 ft, Towering cumulus.
Broken clouds at a height of 3000 ft
Temporary
from 23 at 03 UTC to 24 at 03 UTC
Wind 35 kt from the Northwest
Scattered clouds at a height of 1500 ft, Cumulonimbus.
Broken clouds at a height of 2500 ft
rain showers

TAF: ENOA 2303/2403 32025KT 9999 FEW015TCU BKN030 TEMPO 2303/2403 32035KT SHRA SCT015CB BKN025

Weather observations and forecasts of more than 4000 airports (METAR and TAF reports).

The available stations are represented by yellow and red dots on the map.

Hover mouse over dot to see the name of the station.

Then click to see weather observations and forecasts.

To change the map : click on the green buttons with a black cross to zoom in, on the green button with a dash to zoom out, or on the green arrows for adjacent maps.


METAR-TAF: